Time;durP1;ratioP1;P1;durP2;ratioP2;P2;SDS_P1;SDS_P2;PMS_P1;PMS_P2;Temp;Humidity;BMP_temperature;BMP_pressure;BME280_temperature;BME280_humidity;BME280_pressure;Samples;Min_cycle;Max_cycle;Signal;HPM_P1;HPM_P2
2021/05/02 00:01:09;;;;;;;16.02;10.93;;;5.70;99.90;;;;;;5062545;28;20025;-51
2021/05/02 00:03:35;;;;;;;;;;;5.70;99.90;;;;;;5062834;28;20412;-49
2021/05/02 00:06:01;;;;;;;15.48;9.07;;;5.70;99.90;;;;;;5063906;28;19920;-53
2021/05/02 00:08:27;;;;;;;15.85;10.18;;;5.70;99.90;;;;;;5063420;28;20052;-54
2021/05/02 00:10:53;;;;;;;;;;;5.70;99.90;;;;;;5062960;28;20037;-51
2021/05/02 00:13:19;;;;;;;16.88;10.52;;;5.60;99.90;;;;;;5062882;28;19912;-52
2021/05/02 00:15:44;;;;;;;19.13;11.38;;;5.60;99.90;;;;;;5061710;28;20087;-55
2021/05/02 00:18:10;;;;;;;;;;;5.60;99.90;;;;;;5054732;28;20064;-52
2021/05/02 00:20:36;;;;;;;16.67;9.80;;;5.60;99.90;;;;;;5049167;28;20273;-53
2021/05/02 00:23:02;;;;;;;;;;;5.50;99.90;;;;;;5050081;28;20041;-52
2021/05/02 00:25:31;;;;;;;14.55;9.95;;;5.60;99.90;;;;;;5049522;28;20438;-54
2021/05/02 00:27:58;;;;;;;15.70;9.18;;;5.50;99.90;;;;;;5048798;28;20041;-54
2021/05/02 00:30:25;;;;;;;17.33;9.05;;;5.40;99.90;;;;;;5048843;28;20051;-51
2021/05/02 00:32:53;;;;;;;18.00;11.05;;;5.50;99.90;;;;;;5049486;28;20041;-53
2021/05/02 00:35:22;;;;;;;15.65;9.48;;;5.50;99.90;;;;;;5048814;28;20045;-53
2021/05/02 00:37:49;;;;;;;19.00;10.23;;;5.50;99.90;;;;;;5048881;28;20064;-51
2021/05/02 00:40:18;;;;;;;13.68;9.40;;;5.40;99.90;;;;;;5048862;28;20547;-48
2021/05/02 00:42:52;;;;;;;18.20;10.63;;;5.40;99.90;;;;;;5049049;28;20041;-54
2021/05/02 00:45:49;;;;;;;16.30;10.10;;;5.40;99.90;;;;;;5047780;28;20041;-51
2021/05/02 00:48:22;;;;;;;19.90;10.88;;;5.40;99.90;;;;;;5046770;28;20048;-49
2021/05/02 00:50:57;;;;;;;18.92;10.38;;;5.30;99.90;;;;;;5049169;28;20037;-56
2021/05/02 00:53:53;;;;;;;15.82;10.85;;;5.30;99.90;;;;;;5049097;28;20052;-48
2021/05/02 00:56:26;;;;;;;18.25;12.00;;;5.30;99.90;;;;;;5043237;28;20040;-54
2021/05/02 00:59:19;;;;;;;25.70;11.55;;;5.30;99.90;;;;;;5049366;28;20109;-54
2021/05/02 01:01:49;;;;;;;18.33;11.02;;;5.30;99.90;;;;;;5047865;28;20132;-57
2021/05/02 01:04:20;;;;;;;20.08;11.15;;;5.20;99.90;;;;;;5048160;28;20053;-52
2021/05/02 01:06:49;;;;;;;17.10;11.15;;;5.20;99.90;;;;;;5043789;28;20092;-50
2021/05/02 01:09:16;;;;;;;17.98;11.90;;;5.20;99.90;;;;;;5028215;28;20042;-51
2021/05/02 01:11:46;;;;;;;20.15;11.63;;;5.20;99.90;;;;;;5028119;28;20037;-55
2021/05/02 01:14:12;;;;;;;17.50;12.05;;;5.20;99.90;;;;;;5027623;28;20434;-51
2021/05/02 01:16:40;;;;;;;17.67;11.63;;;5.20;99.90;;;;;;5027790;28;20037;-54
2021/05/02 01:19:12;;;;;;;20.30;12.18;;;5.20;99.90;;;;;;5028656;28;20033;-55
2021/05/02 01:21:39;;;;;;;20.15;11.75;;;5.20;99.90;;;;;;5028049;28;20113;-54
2021/05/02 01:24:08;;;;;;;17.48;10.02;;;5.20;99.90;;;;;;5039444;28;20076;-54
2021/05/02 01:26:38;;;;;;;16.58;11.40;;;5.10;99.90;;;;;;5048183;28;20044;-53
2021/05/02 01:29:04;;;;;;;21.58;12.52;;;5.20;99.90;;;;;;5046005;28;20062;-54
2021/05/02 01:31:30;;;;;;;;;;;5.20;99.90;;;;;;5047757;28;20098;-54
2021/05/02 01:33:56;;;;;;;19.90;11.00;;;5.20;99.90;;;;;;5047734;28;19916;-52
2021/05/02 01:36:22;;;;;;;20.80;12.40;;;5.20;99.90;;;;;;5047981;28;20156;-54
2021/05/02 01:38:50;;;;;;;19.42;12.88;;;5.20;99.90;;;;;;5047689;28;20518;-50
2021/05/02 01:41:16;;;;;;;23.48;13.57;;;5.20;99.90;;;;;;5047880;28;20097;-52
2021/05/02 01:43:41;;;;;;;;;;;5.20;99.90;;;;;;5047827;28;20041;-52
2021/05/02 01:46:07;;;;;;;19.60;11.80;;;5.20;99.90;;;;;;5046615;28;20515;-49
2021/05/02 01:48:33;;;;;;;17.05;11.73;;;5.30;99.90;;;;;;5048010;28;20064;-52
2021/05/02 01:51:08;;;;;;;22.05;13.13;;;5.20;99.90;;;;;;5047993;28;20037;-51
2021/05/02 01:53:34;;;;;;;20.48;12.80;;;5.20;99.90;;;;;;5047262;28;20174;-50
2021/05/02 01:56:01;;;;;;;18.77;13.38;;;5.30;99.90;;;;;;5046837;28;20056;-52
2021/05/02 01:58:27;;;;;;;21.23;12.82;;;5.30;99.90;;;;;;5046849;28;20055;-51
2021/05/02 02:00:58;;;;;;;19.60;12.90;;;5.30;99.90;;;;;;5046602;28;20067;-56
2021/05/02 02:03:25;;;;;;;21.08;12.70;;;5.30;99.90;;;;;;5046986;28;20087;-54
2021/05/02 02:05:50;;;;;;;20.60;12.23;;;5.30;99.90;;;;;;5047138;28;20044;-56
2021/05/02 02:08:16;;;;;;;;;;;5.30;99.90;;;;;;5047427;28;20045;-57
2021/05/02 02:10:44;;;;;;;19.38;9.85;;;5.30;99.90;;;;;;5046568;28;19913;-53
2021/05/02 02:13:11;;;;;;;24.95;15.50;;;5.40;99.90;;;;;;5047302;28;20037;-51
2021/05/02 02:15:38;;;;;;;22.73;15.13;;;5.30;99.90;;;;;;5045812;28;20119;-51
2021/05/02 02:18:05;;;;;;;24.25;16.08;;;5.30;99.90;;;;;;5047253;28;20037;-51
2021/05/02 02:20:41;;;;;;;24.90;15.45;;;5.20;99.90;;;;;;5047003;28;20048;-50
2021/05/02 02:23:14;;;;;;;24.25;14.77;;;5.20;99.90;;;;;;5046753;28;20033;-54
2021/05/02 02:25:42;;;;;;;25.33;15.68;;;5.20;99.90;;;;;;5045914;28;20515;-52
2021/05/02 02:28:12;;;;;;;26.10;16.42;;;5.10;99.90;;;;;;5046941;28;20060;-54
2021/05/02 02:30:43;;;;;;;26.83;16.25;;;5.00;99.90;;;;;;5045963;28;20112;-53
2021/05/02 02:33:09;;;;;;;24.40;14.95;;;5.00;99.90;;;;;;5046531;28;20683;-51
2021/05/02 02:35:40;;;;;;;27.77;16.42;;;5.00;99.90;;;;;;5046209;28;20116;-54
2021/05/02 02:38:08;;;;;;;24.27;14.88;;;5.00;99.90;;;;;;5046701;28;20335;-53
2021/05/02 02:40:38;;;;;;;22.85;14.57;;;5.00;99.90;;;;;;5045052;28;20408;-55
2021/05/02 02:43:05;;;;;;;22.92;14.93;;;5.00;99.90;;;;;;5046911;28;20517;-54
2021/05/02 02:45:35;;;;;;;20.90;14.02;;;5.00;99.90;;;;;;5045892;28;20033;-50
2021/05/02 02:48:03;;;;;;;25.60;15.07;;;5.10;99.90;;;;;;5046115;28;20490;-49
2021/05/02 02:50:30;;;;;;;22.83;14.50;;;5.10;99.90;;;;;;5046430;28;20049;-55
2021/05/02 02:53:04;;;;;;;25.90;15.07;;;5.10;99.90;;;;;;5044748;28;20072;-53
2021/05/02 02:55:32;;;;;;;25.33;14.95;;;5.00;99.90;;;;;;5045469;28;20493;-55
2021/05/02 02:58:02;;;;;;;24.98;15.90;;;5.00;99.90;;;;;;5046558;28;20041;-51
2021/05/02 03:00:32;;;;;;;25.35;15.43;;;5.00;99.90;;;;;;5045560;28;20044;-56
2021/05/02 03:03:13;;;;;;;28.92;17.00;;;5.00;99.90;;;;;;5045922;28;20039;-51
2021/05/02 03:05:40;;;;;;;29.58;16.13;;;5.00;99.90;;;;;;5045700;28;20595;-51
2021/05/02 03:08:10;;;;;;;27.65;16.90;;;5.00;99.90;;;;;;5046541;28;20072;-54
2021/05/02 03:10:39;;;;;;;22.80;15.00;;;5.00;99.90;;;;;;5046689;28;20048;-54
2021/05/02 03:13:04;;;;;;;24.75;16.17;;;5.00;99.90;;;;;;5046970;28;20064;-56
2021/05/02 03:15:30;;;;;;;;;;;5.00;99.90;;;;;;5045871;28;20493;-54
2021/05/02 03:18:01;;;;;;;30.45;16.80;;;5.00;99.90;;;;;;5046379;28;20368;-53
2021/05/02 03:20:30;;;;;;;26.98;16.40;;;4.90;99.90;;;;;;5046660;28;20051;-51
2021/05/02 03:22:58;;;;;;;23.67;15.57;;;4.90;99.90;;;;;;5047091;28;20048;-55
2021/05/02 03:25:26;;;;;;;24.55;15.18;;;5.00;99.90;;;;;;5045795;28;20037;-55
2021/05/02 03:28:05;;;;;;;23.88;15.40;;;5.00;99.90;;;;;;5046048;28;20029;-53
2021/05/02 03:30:33;;;;;;;26.00;14.73;;;5.00;99.90;;;;;;5046021;28;20055;-51
2021/05/02 03:33:03;;;;;;;26.40;15.18;;;5.00;99.90;;;;;;5046193;28;20044;-55
2021/05/02 03:35:36;;;;;;;29.10;15.63;;;5.00;99.90;;;;;;5046672;28;20037;-53
2021/05/02 03:38:35;;;;;;;23.98;15.50;;;4.90;99.90;;;;;;5046165;28;20370;-51
2021/05/02 03:41:01;;;;;;;22.38;14.43;;;4.70;99.90;;;;;;5046038;28;20037;-54
2021/05/02 03:43:26;;;;;;;23.77;15.20;;;4.80;99.90;;;;;;5046867;28;20044;-51
2021/05/02 03:45:52;;;;;;;24.98;15.50;;;4.80;99.90;;;;;;5044880;28;20052;-57
2021/05/02 03:48:17;;;;;;;;;;;4.80;99.90;;;;;;5046583;28;20116;-55
2021/05/02 03:50:43;;;;;;;24.65;14.80;;;4.80;99.90;;;;;;5045382;28;20430;-55
2021/05/02 03:53:09;;;;;;;25.02;16.05;;;4.80;99.90;;;;;;5048325;28;20044;-51
2021/05/02 03:55:41;;;;;;;;;;;4.80;99.90;;;;;;5049478;28;20044;-53
2021/05/02 03:58:11;;;;;;;21.48;13.40;;;4.90;99.90;;;;;;5049660;28;19931;-56
2021/05/02 04:00:38;;;;;;;22.08;13.75;;;4.90;99.90;;;;;;5047783;28;20112;-53
2021/05/02 04:03:04;;;;;;;22.23;14.75;;;4.90;99.90;;;;;;5049581;28;20033;-53
2021/05/02 04:05:29;;;;;;;23.70;15.57;;;4.80;99.90;;;;;;5048885;28;20109;-53
2021/05/02 04:07:55;;;;;;;;;;;4.80;99.90;;;;;;5041023;28;20080;-52
2021/05/02 04:10:21;;;;;;;24.05;13.85;;;4.80;99.90;;;;;;5031717;28;20389;-52
2021/05/02 04:12:46;;;;;;;;;;;4.90;99.90;;;;;;5049585;28;20075;-53
2021/05/02 04:15:13;;;;;;;25.40;15.73;;;4.80;99.90;;;;;;5048167;28;19995;-53
2021/05/02 04:17:38;;;;;;;28.73;16.90;;;4.70;99.90;;;;;;5048610;28;20044;-49
2021/05/02 04:20:05;;;;;;;24.55;15.30;;;4.70;99.90;;;;;;5047073;28;20037;-52
2021/05/02 04:22:30;;;;;;;23.48;15.18;;;4.70;99.90;;;;;;5049117;28;20378;-50
2021/05/02 04:24:56;;;;;;;25.50;14.73;;;4.70;99.90;;;;;;5049184;28;20045;-56
2021/05/02 04:27:22;;;;;;;;;;;4.60;99.90;;;;;;5046161;28;20044;-53
2021/05/02 04:29:47;;;;;;;20.40;12.82;;;4.70;99.90;;;;;;5049497;28;19921;-53
2021/05/02 04:32:13;;;;;;;20.98;13.57;;;4.80;99.90;;;;;;5043815;28;20045;-52
2021/05/02 04:34:39;;;;;;;;;;;4.80;99.90;;;;;;5046964;28;20670;-57
2021/05/02 04:37:04;;;;;;;20.58;12.35;;;4.80;99.90;;;;;;5048297;28;19917;-56
2021/05/02 04:39:30;;;;;;;22.95;13.38;;;4.80;99.90;;;;;;5048646;28;20115;-54
2021/05/02 04:41:56;;;;;;;;;;;4.90;99.90;;;;;;5048443;28;20047;-53
2021/05/02 04:44:22;;;;;;;21.10;12.43;;;4.90;99.90;;;;;;5047947;28;19971;-53
2021/05/02 04:46:48;;;;;;;26.90;13.68;;;4.80;99.90;;;;;;5046470;28;20152;-54
2021/05/02 04:49:13;;;;;;;26.25;16.25;;;4.90;99.90;;;;;;5048213;28;20124;-54
2021/05/02 04:51:39;;;;;;;;;;;4.80;99.90;;;;;;5048613;28;20907;-50
2021/05/02 04:54:06;;;;;;;22.70;13.32;;;4.80;99.90;;;;;;5047950;28;20315;-54
2021/05/02 04:56:32;;;;;;;22.13;14.10;;;4.90;99.90;;;;;;5048150;28;20051;-55
2021/05/02 04:58:58;;;;;;;28.52;17.00;;;4.90;99.90;;;;;;5048478;28;20041;-55
2021/05/02 05:01:23;;;;;;;;;;;4.80;99.90;;;;;;5047838;28;20044;-53
2021/05/02 05:03:49;;;;;;;23.50;13.38;;;4.80;99.90;;;;;;5046728;28;19974;-54
2021/05/02 05:06:14;;;;;;;;;;;4.80;99.90;;;;;;5048690;28;20045;-55
2021/05/02 05:08:40;;;;;;;23.10;12.98;;;4.90;99.90;;;;;;5048344;28;20404;-54
2021/05/02 05:11:06;;;;;;;23.88;15.50;;;4.90;99.90;;;;;;5047906;28;20414;-51
2021/05/02 05:13:32;;;;;;;23.52;14.25;;;5.00;99.90;;;;;;5047518;28;20409;-52
2021/05/02 05:15:59;;;;;;;22.30;14.00;;;5.00;99.90;;;;;;5047427;28;20554;-52
2021/05/02 05:18:26;;;;;;;24.48;14.48;;;4.90;99.90;;;;;;5048294;28;20093;-48
2021/05/02 05:20:53;;;;;;;23.45;14.43;;;4.90;99.90;;;;;;5047809;28;20036;-52
2021/05/02 05:23:19;;;;;;;23.92;12.70;;;4.80;99.90;;;;;;5048486;28;20041;-50
2021/05/02 05:25:45;;;;;;;20.67;13.25;;;4.90;99.90;;;;;;5046959;28;20052;-54
2021/05/02 05:28:11;;;;;;;18.50;12.00;;;4.90;99.90;;;;;;5047239;28;20117;-57
2021/05/02 05:30:37;;;;;;;19.17;11.43;;;4.90;99.90;;;;;;5045481;28;20045;-54
2021/05/02 05:33:04;;;;;;;19.85;10.80;;;4.80;99.90;;;;;;5046528;28;20032;-54
2021/05/02 05:35:30;;;;;;;17.75;11.05;;;4.90;99.90;;;;;;5046869;28;20544;-51
2021/05/02 05:37:56;;;;;;;19.90;11.23;;;4.90;99.90;;;;;;5046016;28;20041;-56
2021/05/02 05:40:22;;;;;;;18.58;11.18;;;4.80;99.90;;;;;;5045635;28;20044;-54
2021/05/02 05:42:48;;;;;;;16.88;10.77;;;4.80;99.90;;;;;;5047216;28;20040;-52
2021/05/02 05:45:13;;;;;;;14.68;10.10;;;4.80;99.90;;;;;;5046018;28;20421;-51
2021/05/02 05:47:39;;;;;;;19.05;10.40;;;4.80;99.90;;;;;;5047079;28;20049;-54
2021/05/02 05:50:11;;;;;;;18.80;11.35;;;4.90;99.90;;;;;;5046479;28;20069;-53
2021/05/02 05:52:37;;;;;;;14.63;9.55;;;4.90;99.90;;;;;;5027776;28;20409;-55
2021/05/02 05:55:03;;;;;;;16.92;9.70;;;4.70;99.90;;;;;;5026506;28;20038;-53
2021/05/02 05:57:29;;;;;;;15.15;8.52;;;4.60;99.90;;;;;;5038027;28;20044;-51
2021/05/02 05:59:54;;;;;;;15.10;8.88;;;4.60;99.90;;;;;;5043866;28;20037;-50
2021/05/02 06:02:20;;;;;;;;;;;4.50;99.90;;;;;;5044368;28;20094;-54
2021/05/02 06:04:46;;;;;;;15.73;8.45;;;4.60;99.90;;;;;;5046102;28;19925;-52
2021/05/02 06:07:12;;;;;;;17.52;8.57;;;4.60;99.90;;;;;;5046132;28;20119;-50
2021/05/02 06:09:37;;;;;;;12.23;7.60;;;4.60;99.90;;;;;;5046873;28;20535;-49
2021/05/02 06:12:03;;;;;;;;;;;4.60;99.90;;;;;;5046694;28;20044;-56
2021/05/02 06:14:28;;;;;;;10.55;6.60;;;4.70;99.90;;;;;;5045728;28;19924;-51
2021/05/02 06:16:54;;;;;;;;;;;4.80;99.90;;;;;;5046008;28;20900;-54
2021/05/02 06:19:19;;;;;;;10.18;6.22;;;4.80;99.90;;;;;;5046458;28;20447;-50
2021/05/02 06:21:45;;;;;;;10.30;6.32;;;4.90;99.90;;;;;;5047103;28;21047;-51
2021/05/02 06:24:10;;;;;;;;;;;4.90;99.90;;;;;;5045905;28;20127;-55
2021/05/02 06:26:36;;;;;;;10.85;5.70;;;5.00;99.90;;;;;;5043998;28;19964;-53
2021/05/02 06:29:02;;;;;;;;;;;4.90;99.90;;;;;;5045695;28;20127;-51
2021/05/02 06:31:27;;;;;;;9.45;6.10;;;5.00;99.90;;;;;;5045328;28;19947;-51
2021/05/02 06:33:53;;;;;;;8.60;5.07;;;5.10;99.90;;;;;;5045853;28;20056;-52
2021/05/02 06:36:18;;;;;;;;;;;5.10;99.90;;;;;;5044364;28;20372;-51
2021/05/02 06:38:44;;;;;;;8.93;4.85;;;5.10;99.90;;;;;;5042807;28;19912;-52
2021/05/02 06:41:09;;;;;;;6.45;4.07;;;5.20;99.90;;;;;;5045363;28;20045;-56
2021/05/02 06:43:35;;;;;;;7.75;4.78;;;5.20;99.90;;;;;;5045652;28;20033;-55
2021/05/02 06:46:01;;;;;;;;;;;5.20;99.90;;;;;;5045585;28;20041;-57
2021/05/02 06:48:26;;;;;;;9.02;4.75;;;5.00;99.90;;;;;;5045524;28;19924;-56
2021/05/02 06:50:52;;;;;;;6.82;4.80;;;5.00;99.90;;;;;;5044312;28;20037;-60
2021/05/02 06:53:18;;;;;;;10.90;4.90;;;5.00;99.90;;;;;;5045692;28;20033;-59
2021/05/02 06:55:44;;;;;;;8.02;4.88;;;5.10;99.90;;;;;;5045263;28;20587;-56
2021/05/02 06:58:10;;;;;;;6.47;3.97;;;5.20;99.90;;;;;;5043244;28;20115;-55
2021/05/02 07:00:38;;;;;;;7.90;3.70;;;5.20;99.90;;;;;;5044721;28;20052;-59
2021/05/02 07:03:08;;;;;;;12.85;3.90;;;5.30;99.90;;;;;;5046515;28;20045;-60
2021/05/02 07:05:34;;;;;;;10.30;4.63;;;5.40;99.90;;;;;;5044984;28;20083;-57
2021/05/02 07:08:00;;;;;;;8.07;4.10;;;5.40;99.90;;;;;;5046013;28;20069;-60
2021/05/02 07:10:27;;;;;;;;;;;5.30;99.90;;;;;;5046534;28;20069;-53
2021/05/02 07:12:52;;;;;;;6.85;3.92;;;5.20;99.90;;;;;;5042206;28;19924;-53
2021/05/02 07:15:18;;;;;;;;;;;5.10;99.90;;;;;;5042121;28;20037;-55
2021/05/02 07:17:44;;;;;;;11.07;4.90;;;5.00;99.90;;;;;;5043925;28;19917;-53
2021/05/02 07:20:11;;;;;;;;;;;5.10;99.90;;;;;;5035830;28;20071;-56
2021/05/02 07:22:37;;;;;;;6.43;3.33;;;5.20;99.90;;;;;;5039378;28;19913;-56
2021/05/02 07:25:03;;;;;;;;;;;5.10;99.90;;;;;;5032602;28;20051;-55
2021/05/02 07:27:29;;;;;;;8.65;3.67;;;5.10;99.90;;;;;;5043341;28;20416;-53
2021/05/02 07:29:54;;;;;;;10.70;5.07;;;5.00;99.90;;;;;;5048136;28;20037;-55
2021/05/02 07:32:20;;;;;;;;;;;5.00;99.90;;;;;;5050784;28;20041;-49
2021/05/02 07:34:46;;;;;;;10.85;4.88;;;5.00;99.90;;;;;;5048909;28;19920;-53
2021/05/02 07:37:11;;;;;;;;;;;5.00;99.90;;;;;;5049531;28;20045;-54
2021/05/02 07:39:40;;;;;;;10.65;6.00;;;5.00;99.90;;;;;;5049076;28;19970;-56
2021/05/02 07:42:05;;;;;;;11.60;7.20;;;4.80;99.90;;;;;;5049048;28;20044;-51
2021/05/02 07:44:31;;;;;;;13.80;6.72;;;4.90;99.90;;;;;;5048937;28;20041;-51
2021/05/02 07:46:56;;;;;;;8.40;5.55;;;4.90;99.90;;;;;;5048343;28;20068;-54
2021/05/02 07:49:22;;;;;;;13.82;7.35;;;5.10;99.90;;;;;;5048601;28;20521;-52
2021/05/02 07:51:47;;;;;;;8.45;4.88;;;5.30;99.90;;;;;;5049364;28;20041;-53
2021/05/02 07:54:13;;;;;;;;;;;5.30;99.90;;;;;;5048498;28;20607;-50
2021/05/02 07:56:38;;;;;;;11.32;4.70;;;5.40;99.90;;;;;;5048074;28;19916;-53
2021/05/02 07:59:04;;;;;;;;;;;5.30;99.90;;;;;;5049249;28;20036;-53
2021/05/02 08:01:29;;;;;;;14.18;8.43;;;5.20;99.90;;;;;;5048748;28;19920;-55
2021/05/02 08:03:55;;;;;;;12.20;4.80;;;5.30;99.90;;;;;;5048313;28;20047;-53
2021/05/02 08:06:22;;;;;;;10.32;4.90;;;5.20;99.90;;;;;;5048549;28;20049;-53
2021/05/02 08:08:47;;;;;;;10.00;5.40;;;5.30;99.90;;;;;;5049215;28;20055;-54
2021/05/02 08:11:13;;;;;;;;;;;5.20;99.90;;;;;;5048532;28;20033;-54
2021/05/02 08:13:38;;;;;;;11.20;6.53;;;5.20;99.90;;;;;;5047056;28;19959;-53
2021/05/02 08:16:04;;;;;;;;;;;5.10;99.90;;;;;;5048486;28;20633;-53
2021/05/02 08:18:29;;;;;;;18.27;10.75;;;5.20;99.90;;;;;;5048488;28;19927;-55
2021/05/02 08:20:55;;;;;;;;;;;5.00;99.90;;;;;;5049194;28;20552;-54
2021/05/02 08:23:20;;;;;;;12.27;7.15;;;5.20;99.90;;;;;;5048376;28;20102;-54
2021/05/02 08:25:46;;;;;;;;;;;5.20;99.90;;;;;;5049125;28;20048;-53
2021/05/02 08:28:12;;;;;;;20.65;14.27;;;5.20;99.90;;;;;;5044491;28;19923;-56
2021/05/02 08:30:37;;;;;;;;;;;5.30;99.90;;;;;;5048124;28;20405;-57
2021/05/02 08:33:03;;;;;;;12.73;7.57;;;5.40;99.90;;;;;;5048470;28;19924;-57
2021/05/02 08:35:28;;;;;;;10.52;6.32;;;5.50;99.90;;;;;;5047907;28;20044;-50
2021/05/02 08:37:54;;;;;;;;;;;5.40;99.90;;;;;;5048646;28;20048;-54
2021/05/02 08:40:19;;;;;;;29.35;17.38;;;5.30;99.90;;;;;;5047744;28;19928;-56
2021/05/02 08:42:45;;;;;;;14.80;10.10;;;5.40;99.90;;;;;;5048816;28;20358;-52
2021/05/02 08:45:11;;;;;;;;;;;5.40;99.90;;;;;;5047055;28;20168;-55
2021/05/02 08:47:37;;;;;;;9.80;6.25;;;5.50;99.90;;;;;;5048085;28;19927;-51
2021/05/02 08:50:08;;;;;;;8.63;5.35;;;5.40;99.90;;;;;;5048713;28;20048;-52
2021/05/02 08:52:34;;;;;;;8.30;5.03;;;5.30;99.90;;;;;;5028050;28;20472;-55
2021/05/02 08:55:00;;;;;;;8.23;4.88;;;5.30;99.90;;;;;;5027635;28;20072;-53
2021/05/02 08:57:26;;;;;;;9.40;5.30;;;5.50;99.90;;;;;;5039544;28;20044;-53
2021/05/02 08:59:51;;;;;;;;;;;5.60;99.90;;;;;;5048156;28;20805;-52
2021/05/02 09:02:25;;;;;;;10.30;4.90;;;5.50;99.90;;;;;;5047504;28;19916;-56
2021/05/02 09:04:55;;;;;;;10.25;5.60;;;5.40;99.90;;;;;;5047528;28;20041;-55
2021/05/02 09:07:21;;;;;;;25.98;14.45;;;5.40;99.90;;;;;;5047497;28;20045;-54
2021/05/02 09:09:47;;;;;;;;;;;5.30;99.90;;;;;;5048197;28;20700;-53
2021/05/02 09:12:23;;;;;;;7.53;4.75;;;5.20;99.90;;;;;;5048130;28;19936;-55
2021/05/02 09:14:50;;;;;;;8.00;4.35;;;5.00;99.90;;;;;;5047938;28;20043;-56
2021/05/02 09:17:25;;;;;;;20.92;13.25;;;5.00;99.90;;;;;;5046935;28;20047;-54
2021/05/02 09:19:52;;;;;;;9.73;5.65;;;5.10;99.90;;;;;;5047878;28;20048;-56
2021/05/02 09:22:19;;;;;;;10.98;4.63;;;5.10;99.90;;;;;;5047522;28;20056;-52
2021/05/02 09:25:03;;;;;;;5.40;4.07;;;5.00;99.90;;;;;;5047229;28;20098;-49
2021/05/02 09:27:29;;;;;;;8.88;5.05;;;5.20;99.90;;;;;;5047662;28;20048;-54
2021/05/02 09:30:11;;;;;;;;;;;5.20;99.90;;;;;;5047131;28;20045;-52
2021/05/02 09:32:44;;;;;;;10.10;5.47;;;5.30;99.90;;;;;;5047147;28;19927;-54
2021/05/02 09:35:25;;;;;;;9.25;5.03;;;5.30;99.90;;;;;;5047638;28;20891;-55
2021/05/02 09:38:16;;;;;;;8.70;4.72;;;5.40;99.90;;;;;;5047046;28;20483;-52
2021/05/02 09:40:50;;;;;;;9.73;4.60;;;5.30;99.90;;;;;;5047601;28;20045;-56
2021/05/02 09:43:34;;;;;;;6.95;4.55;;;5.60;99.90;;;;;;5047366;28;20044;-55
2021/05/02 09:46:07;;;;;;;9.52;4.63;;;5.90;99.90;;;;;;5046984;28;20097;-56
2021/05/02 09:48:36;;;;;;;7.65;3.88;;;6.40;99.90;;;;;;5047365;28;20077;-52
2021/05/02 09:51:12;;;;;;;18.98;9.65;;;6.50;99.90;;;;;;5046155;28;20089;-56
2021/05/02 09:53:38;;;;;;;8.55;4.57;;;6.60;99.90;;;;;;5046922;28;20056;-54
2021/05/02 09:56:14;;;;;;;12.25;5.53;;;6.50;99.90;;;;;;5046722;28;20445;-49
2021/05/02 09:58:39;;;;;;;18.75;5.60;;;6.20;99.90;;;;;;5045714;28;20056;-55
2021/05/02 10:01:05;;;;;;;;;;;6.00;99.90;;;;;;5046814;28;20037;-55
2021/05/02 10:03:32;;;;;;;7.70;4.03;;;5.90;99.90;;;;;;5046097;28;19967;-56
2021/05/02 10:06:03;;;;;;;7.07;3.58;;;6.20;99.90;;;;;;5045327;28;20135;-54
2021/05/02 10:08:33;;;;;;;8.25;3.30;;;6.50;99.90;;;;;;5046790;28;20400;-52
2021/05/02 10:11:05;;;;;;;6.88;3.50;;;6.80;99.90;;;;;;5046588;28;20411;-55
2021/05/02 10:13:32;;;;;;;5.25;3.45;;;6.70;99.90;;;;;;5046069;28;20045;-54
2021/05/02 10:15:58;;;;;;;6.68;2.72;;;6.60;99.90;;;;;;5045566;28;20048;-51
2021/05/02 10:18:24;;;;;;;4.90;2.40;;;6.70;99.90;;;;;;5045953;28;20378;-52
2021/05/02 10:20:50;;;;;;;;;;;6.70;99.90;;;;;;5046653;28;20473;-56
2021/05/02 10:23:17;;;;;;;4.65;2.60;;;6.60;99.90;;;;;;5045825;28;19917;-56
2021/05/02 10:25:44;;;;;;;6.60;2.97;;;6.60;99.90;;;;;;5046104;28;20067;-55
2021/05/02 10:28:15;;;;;;;4.28;2.45;;;6.60;99.90;;;;;;5043786;28;20489;-54
2021/05/02 10:30:47;;;;;;;11.50;3.40;;;6.80;99.90;;;;;;5044736;28;20044;-50
2021/05/02 10:33:14;;;;;;;10.55;2.50;;;7.00;99.90;;;;;;5045663;28;20037;-55
2021/05/02 10:35:54;;;;;;;8.02;2.83;;;7.30;99.90;;;;;;5045925;28;20045;-56
2021/05/02 10:38:21;;;;;;;8.80;4.60;;;7.70;99.70;;;;;;5046437;28;20037;-56
2021/05/02 10:40:47;;;;;;;5.30;2.33;;;8.00;98.10;;;;;;5045747;28;20044;-58
2021/05/02 10:43:30;;;;;;;5.00;2.22;;;7.90;97.60;;;;;;5045616;28;20040;-54
2021/05/02 10:45:56;;;;;;;4.70;2.53;;;7.50;97.00;;;;;;5043927;28;20045;-52
2021/05/02 10:48:22;;;;;;;9.30;2.47;;;7.10;97.40;;;;;;5044667;28;20037;-55
2021/05/02 10:50:49;;;;;;;;;;;7.00;97.80;;;;;;5046628;28;20378;-55
2021/05/02 10:53:22;;;;;;;6.57;2.65;;;7.00;96.10;;;;;;5045584;28;19917;-53
2021/05/02 10:55:56;;;;;;;3.25;2.20;;;7.10;96.40;;;;;;5045628;28;20107;-54
2021/05/02 10:58:32;;;;;;;9.82;2.15;;;7.40;96.50;;;;;;5040746;28;20582;-57
2021/05/02 11:01:03;;;;;;;3.60;2.00;;;7.90;94.40;;;;;;5045129;28;20043;-51
2021/05/02 11:03:41;;;;;;;8.63;2.33;;;8.20;96.00;;;;;;5045752;28;20840;-52
2021/05/02 11:06:11;;;;;;;5.30;1.90;;;7.90;93.50;;;;;;5025209;28;20037;-53
2021/05/02 11:08:59;;;;;;;7.30;2.45;;;7.70;93.70;;;;;;5039942;28;20141;-55
2021/05/02 11:11:31;;;;;;;6.65;2.00;;;7.60;93.90;;;;;;5044803;28;20044;-55
2021/05/02 11:14:09;;;;;;;3.42;1.90;;;7.40;93.90;;;;;;5045119;28;20060;-51
2021/05/02 11:16:40;;;;;;;4.95;1.70;;;7.30;93.60;;;;;;5044941;28;20125;-55
2021/05/02 11:19:08;;;;;;;5.85;2.00;;;7.20;93.70;;;;;;5045712;28;20485;-58
2021/05/02 11:21:46;;;;;;;4.78;2.13;;;7.20;93.90;;;;;;5045219;28;20053;-52
2021/05/02 11:24:12;;;;;;;4.68;1.90;;;7.20;92.80;;;;;;5045949;28;20492;-51
2021/05/02 11:32:39;;;;;;;5.32;1.80;;;7.90;90.60;;;;;;5045263;28;20112;-52
2021/05/02 11:35:10;;;;;;;3.30;1.88;;;7.80;91.80;;;;;;5045681;28;20113;-50
2021/05/02 11:37:52;;;;;;;4.25;1.88;;;7.80;91.40;;;;;;5045369;28;20053;-56
2021/05/02 11:40:18;;;;;;;7.57;2.03;;;7.60;90.00;;;;;;5037463;28;20029;-61
2021/05/02 11:43:07;;;;;;;;;;;7.30;92.30;;;;;;5033770;28;20147;-56
2021/05/02 11:45:40;;;;;;;7.18;3.28;;;7.30;92.00;;;;;;5036920;28;19917;-53
2021/05/02 11:48:07;;;;;;;7.07;3.00;;;7.50;91.90;;;;;;5041388;28;20045;-55
2021/05/02 11:50:43;;;;;;;5.18;2.25;;;7.80;92.20;;;;;;5041796;28;20037;-53
2021/05/02 11:53:09;;;;;;;8.93;3.63;;;8.00;92.60;;;;;;5025811;28;20128;-57
2021/05/02 11:55:40;;;;;;;;;;;8.40;91.20;;;;;;5025994;28;20706;-53
2021/05/02 11:58:15;;;;;;;5.63;1.90;;;8.60;90.70;;;;;;5041164;28;19916;-54
2021/05/02 12:00:47;;;;;;;6.67;1.90;;;9.00;90.20;;;;;;5044269;28;20072;-55
2021/05/02 12:03:16;;;;;;;4.72;1.65;;;9.10;90.50;;;;;;5045650;28;20116;-53
2021/05/02 12:05:50;;;;;;;3.50;1.95;;;9.10;86.30;;;;;;5044720;28;20043;-57
2021/05/02 12:08:17;;;;;;;4.25;1.98;;;8.90;86.50;;;;;;5042956;28;20036;-57
2021/05/02 12:10:44;;;;;;;6.10;1.80;;;8.70;87.30;;;;;;5042517;28;20037;-55
2021/05/02 12:13:37;;;;;;;5.05;1.88;;;8.50;87.30;;;;;;5036532;28;20033;-55
2021/05/02 12:16:14;;;;;;;7.75;2.28;;;8.40;89.40;;;;;;5039870;28;20040;-58
2021/05/02 12:19:00;;;;;;;7.50;2.22;;;8.30;87.60;;;;;;5028336;28;20235;-58
2021/05/02 12:21:28;;;;;;;5.10;2.17;;;8.30;88.80;;;;;;5029361;28;20045;-57
2021/05/02 12:24:12;;;;;;;5.63;2.05;;;8.40;89.20;;;;;;5028943;28;20575;-57
2021/05/02 12:26:44;;;;;;;3.90;2.00;;;8.60;87.30;;;;;;5031174;28;20044;-53
2021/05/02 12:29:28;;;;;;;6.90;2.63;;;8.80;85.80;;;;;;5048522;28;20112;-53
2021/05/02 12:32:14;;;;;;;6.78;2.03;;;8.70;86.00;;;;;;5047809;28;20041;-51
2021/05/02 12:34:50;;;;;;;3.70;1.90;;;8.70;84.20;;;;;;5048413;28;20365;-55
2021/05/02 12:37:20;;;;;;;3.10;2.13;;;8.80;85.90;;;;;;5048496;28;20183;-54
2021/05/02 12:39:51;;;;;;;5.65;2.03;;;8.90;83.50;;;;;;5046144;28;20451;-52
2021/05/02 12:42:28;;;;;;;6.95;1.80;;;9.00;84.60;;;;;;5045484;28;20048;-54
2021/05/02 12:44:54;;;;;;;6.10;2.47;;;9.30;83.30;;;;;;5043560;28;20051;-54
2021/05/02 12:47:30;;;;;;;;;;;9.40;82.30;;;;;;5028034;28;20492;-56
2021/05/02 12:50:07;;;;;;;3.67;2.00;;;9.00;79.50;;;;;;5028387;28;19956;-55
2021/05/02 12:52:32;;;;;;;;;;;9.00;84.00;;;;;;5047845;28;20493;-51
2021/05/02 12:55:31;;;;;;;5.00;2.03;;;9.20;83.40;;;;;;5048052;28;19924;-54
2021/05/02 12:58:01;;;;;;;7.55;3.95;;;9.20;83.30;;;;;;5045664;28;20055;-55
2021/05/02 13:00:36;;;;;;;9.93;2.10;;;9.00;80.80;;;;;;5047197;28;20040;-53
2021/05/02 13:03:37;;;;;;;14.27;4.20;;;8.80;84.40;;;;;;5047124;28;20053;-53
2021/05/02 13:06:11;;;;;;;6.03;2.55;;;8.70;86.90;;;;;;5047530;28;20216;-51
2021/05/02 13:08:38;;;;;;;8.35;3.17;;;8.60;87.00;;;;;;5047011;28;20049;-56
2021/05/02 13:11:35;;;;;;;8.77;2.83;;;8.60;86.00;;;;;;5046280;28;20029;-58
2021/05/02 13:14:21;;;;;;;6.43;2.13;;;8.60;86.90;;;;;;5047200;28;20041;-54
2021/05/02 13:16:49;;;;;;;4.30;2.15;;;8.40;90.40;;;;;;5047408;28;20045;-56